sensor_id;sensor_type;location;lat;lon;timestamp;temperature;humidity
75931;DHT22;64609;47.052;15.462;2023-10-09T00:01:17;16.20;67.90
75931;DHT22;64609;47.052;15.462;2023-10-09T00:03:44;16.30;67.80
75931;DHT22;64609;47.052;15.462;2023-10-09T00:06:10;16.30;67.50
75931;DHT22;64609;47.052;15.462;2023-10-09T00:08:39;16.30;68.10
75931;DHT22;64609;47.052;15.462;2023-10-09T00:11:09;16.30;67.10
75931;DHT22;64609;47.052;15.462;2023-10-09T00:13:46;16.30;67.00
75931;DHT22;64609;47.052;15.462;2023-10-09T00:16:21;16.30;67.10
75931;DHT22;64609;47.052;15.462;2023-10-09T00:19:09;16.30;67.00
75931;DHT22;64609;47.052;15.462;2023-10-09T00:21:47;16.30;66.80
75931;DHT22;64609;47.052;15.462;2023-10-09T00:24:13;16.20;66.70
75931;DHT22;64609;47.052;15.462;2023-10-09T00:26:48;16.10;66.70
75931;DHT22;64609;47.052;15.462;2023-10-09T00:29:15;16.00;67.10
75931;DHT22;64609;47.052;15.462;2023-10-09T00:31:53;15.90;67.40
75931;DHT22;64609;47.052;15.462;2023-10-09T00:34:31;15.80;67.60
75931;DHT22;64609;47.052;15.462;2023-10-09T00:37:05;15.80;67.50
75931;DHT22;64609;47.052;15.462;2023-10-09T00:39:36;15.70;67.30
75931;DHT22;64609;47.052;15.462;2023-10-09T00:42:02;15.80;67.50
75931;DHT22;64609;47.052;15.462;2023-10-09T00:44:28;15.80;67.40
75931;DHT22;64609;47.052;15.462;2023-10-09T00:47:05;15.80;67.30
75931;DHT22;64609;47.052;15.462;2023-10-09T00:49:44;15.90;68.00
75931;DHT22;64609;47.052;15.462;2023-10-09T00:52:10;15.90;67.20
75931;DHT22;64609;47.052;15.462;2023-10-09T00:54:49;15.70;67.20
75931;DHT22;64609;47.052;15.462;2023-10-09T00:57:18;15.70;67.60
75931;DHT22;64609;47.052;15.462;2023-10-09T00:59:52;15.70;67.70
75931;DHT22;64609;47.052;15.462;2023-10-09T01:02:26;15.80;67.50
75931;DHT22;64609;47.052;15.462;2023-10-09T01:05:02;15.90;67.40
75931;DHT22;64609;47.052;15.462;2023-10-09T01:07:37;15.90;67.30
75931;DHT22;64609;47.052;15.462;2023-10-09T01:10:10;15.90;67.20
75931;DHT22;64609;47.052;15.462;2023-10-09T01:12:36;15.90;67.00
75931;DHT22;64609;47.052;15.462;2023-10-09T01:15:09;16.00;66.90
75931;DHT22;64609;47.052;15.462;2023-10-09T01:17:43;16.10;66.80
75931;DHT22;64609;47.052;15.462;2023-10-09T01:20:11;16.10;66.70
75931;DHT22;64609;47.052;15.462;2023-10-09T01:22:42;16.20;66.50
75931;DHT22;64609;47.052;15.462;2023-10-09T01:25:09;16.20;66.50
75931;DHT22;64609;47.052;15.462;2023-10-09T01:27:36;16.30;66.30
75931;DHT22;64609;47.052;15.462;2023-10-09T01:30:06;16.30;66.00
75931;DHT22;64609;47.052;15.462;2023-10-09T01:32:32;16.30;65.90
75931;DHT22;64609;47.052;15.462;2023-10-09T01:35:00;16.30;65.90
75931;DHT22;64609;47.052;15.462;2023-10-09T01:37:25;16.30;65.90
75931;DHT22;64609;47.052;15.462;2023-10-09T01:39:55;16.30;65.70
75931;DHT22;64609;47.052;15.462;2023-10-09T01:42:25;16.20;66.10
75931;DHT22;64609;47.052;15.462;2023-10-09T01:45:00;16.20;66.20
75931;DHT22;64609;47.052;15.462;2023-10-09T01:47:36;16.30;66.10
75931;DHT22;64609;47.052;15.462;2023-10-09T01:50:04;16.30;66.00
75931;DHT22;64609;47.052;15.462;2023-10-09T01:52:30;16.30;65.60
75931;DHT22;64609;47.052;15.462;2023-10-09T01:54:56;16.30;65.70
75931;DHT22;64609;47.052;15.462;2023-10-09T01:57:29;16.30;65.60
75931;DHT22;64609;47.052;15.462;2023-10-09T01:59:55;16.40;65.80
75931;DHT22;64609;47.052;15.462;2023-10-09T02:02:25;16.40;65.90
75931;DHT22;64609;47.052;15.462;2023-10-09T02:05:03;16.40;66.90
75931;DHT22;64609;47.052;15.462;2023-10-09T02:07:36;16.40;65.80
75931;DHT22;64609;47.052;15.462;2023-10-09T02:10:18;16.40;65.70
75931;DHT22;64609;47.052;15.462;2023-10-09T02:13:05;16.40;65.70
75931;DHT22;64609;47.052;15.462;2023-10-09T02:15:39;16.50;65.80
75931;DHT22;64609;47.052;15.462;2023-10-09T02:18:13;16.50;65.80
75931;DHT22;64609;47.052;15.462;2023-10-09T02:23:25;16.50;65.90
75931;DHT22;64609;47.052;15.462;2023-10-09T02:25:58;16.50;65.90
75931;DHT22;64609;47.052;15.462;2023-10-09T02:28:32;16.50;65.90
75931;DHT22;64609;47.052;15.462;2023-10-09T02:30:59;16.50;66.00
75931;DHT22;64609;47.052;15.462;2023-10-09T02:33:47;16.50;66.00
75931;DHT22;64609;47.052;15.462;2023-10-09T02:36:16;16.50;66.00
75931;DHT22;64609;47.052;15.462;2023-10-09T02:38:42;16.50;65.90
75931;DHT22;64609;47.052;15.462;2023-10-09T02:41:08;16.50;65.80
75931;DHT22;64609;47.052;15.462;2023-10-09T02:43:37;16.50;65.80
75931;DHT22;64609;47.052;15.462;2023-10-09T02:46:14;16.50;65.80
75931;DHT22;64609;47.052;15.462;2023-10-09T02:48:43;16.50;65.90
75931;DHT22;64609;47.052;15.462;2023-10-09T02:51:11;16.60;65.90
75931;DHT22;64609;47.052;15.462;2023-10-09T02:53:46;16.60;65.80
75931;DHT22;64609;47.052;15.462;2023-10-09T02:56:15;16.50;65.80
75931;DHT22;64609;47.052;15.462;2023-10-09T02:58:43;16.60;66.20
75931;DHT22;64609;47.052;15.462;2023-10-09T03:01:12;16.50;66.20
75931;DHT22;64609;47.052;15.462;2023-10-09T03:03:42;16.50;66.10
75931;DHT22;64609;47.052;15.462;2023-10-09T03:06:15;16.50;66.20
75931;DHT22;64609;47.052;15.462;2023-10-09T03:08:49;16.60;66.30
75931;DHT22;64609;47.052;15.462;2023-10-09T03:11:15;16.50;66.30
75931;DHT22;64609;47.052;15.462;2023-10-09T03:13:42;16.60;66.50
75931;DHT22;64609;47.052;15.462;2023-10-09T03:16:13;16.60;66.50
75931;DHT22;64609;47.052;15.462;2023-10-09T03:18:49;16.60;66.50
75931;DHT22;64609;47.052;15.462;2023-10-09T03:21:15;16.60;66.30
75931;DHT22;64609;47.052;15.462;2023-10-09T03:23:47;16.50;66.20
75931;DHT22;64609;47.052;15.462;2023-10-09T03:26:18;16.50;66.30
75931;DHT22;64609;47.052;15.462;2023-10-09T03:28:53;16.50;66.40
75931;DHT22;64609;47.052;15.462;2023-10-09T03:31:30;16.60;66.30
75931;DHT22;64609;47.052;15.462;2023-10-09T03:33:56;16.50;66.30
75931;DHT22;64609;47.052;15.462;2023-10-09T03:36:21;16.50;66.20
75931;DHT22;64609;47.052;15.462;2023-10-09T03:38:52;16.50;66.10
75931;DHT22;64609;47.052;15.462;2023-10-09T03:41:21;16.50;66.40
75931;DHT22;64609;47.052;15.462;2023-10-09T03:43:47;16.50;66.40
75931;DHT22;64609;47.052;15.462;2023-10-09T03:46:13;16.50;66.50
75931;DHT22;64609;47.052;15.462;2023-10-09T03:48:52;16.50;66.60
75931;DHT22;64609;47.052;15.462;2023-10-09T03:51:22;16.50;66.60
75931;DHT22;64609;47.052;15.462;2023-10-09T03:53:49;16.40;66.60
75931;DHT22;64609;47.052;15.462;2023-10-09T03:56:15;16.40;66.70
75931;DHT22;64609;47.052;15.462;2023-10-09T03:58:48;16.40;66.80
75931;DHT22;64609;47.052;15.462;2023-10-09T04:01:16;16.40;66.80
75931;DHT22;64609;47.052;15.462;2023-10-09T04:04:04;16.30;66.90
75931;DHT22;64609;47.052;15.462;2023-10-09T04:06:32;16.30;66.90
75931;DHT22;64609;47.052;15.462;2023-10-09T04:09:04;16.30;66.90
75931;DHT22;64609;47.052;15.462;2023-10-09T04:11:55;16.20;67.00
75931;DHT22;64609;47.052;15.462;2023-10-09T04:14:40;16.20;67.30
75931;DHT22;64609;47.052;15.462;2023-10-09T04:17:30;16.10;67.40
75931;DHT22;64609;47.052;15.462;2023-10-09T04:20:03;16.10;67.40
75931;DHT22;64609;47.052;15.462;2023-10-09T04:22:45;16.00;67.50
75931;DHT22;64609;47.052;15.462;2023-10-09T04:25:18;16.00;67.70
75931;DHT22;64609;47.052;15.462;2023-10-09T04:28:07;15.90;67.70
75931;DHT22;64609;47.052;15.462;2023-10-09T04:30:47;15.90;67.90
75931;DHT22;64609;47.052;15.462;2023-10-09T04:33:19;15.90;67.90
75931;DHT22;64609;47.052;15.462;2023-10-09T04:36:07;15.90;67.90
75931;DHT22;64609;47.052;15.462;2023-10-09T04:38:49;15.80;68.00
75931;DHT22;64609;47.052;15.462;2023-10-09T04:41:43;15.70;68.20
75931;DHT22;64609;47.052;15.462;2023-10-09T04:44:09;15.80;68.30
75931;DHT22;64609;47.052;15.462;2023-10-09T04:46:55;15.70;68.40
75931;DHT22;64609;47.052;15.462;2023-10-09T04:49:37;15.70;68.60
75931;DHT22;64609;47.052;15.462;2023-10-09T04:52:15;15.70;68.60
75931;DHT22;64609;47.052;15.462;2023-10-09T04:55:04;15.60;68.70
75931;DHT22;64609;47.052;15.462;2023-10-09T04:57:47;15.60;68.60
75931;DHT22;64609;47.052;15.462;2023-10-09T05:00:26;15.60;68.90
75931;DHT22;64609;47.052;15.462;2023-10-09T05:02:57;15.50;68.90
75931;DHT22;64609;47.052;15.462;2023-10-09T05:05:30;15.40;69.10
75931;DHT22;64609;47.052;15.462;2023-10-09T05:08:12;15.50;69.20
75931;DHT22;64609;47.052;15.462;2023-10-09T05:10:52;15.50;69.40
75931;DHT22;64609;47.052;15.462;2023-10-09T05:13:27;15.40;69.20
75931;DHT22;64609;47.052;15.462;2023-10-09T05:18:39;15.40;69.40
75931;DHT22;64609;47.052;15.462;2023-10-09T05:21:05;15.40;69.40
75931;DHT22;64609;47.052;15.462;2023-10-09T05:23:50;15.40;69.40
75931;DHT22;64609;47.052;15.462;2023-10-09T05:26:36;15.40;69.50
75931;DHT22;64609;47.052;15.462;2023-10-09T05:29:10;15.40;69.60
75931;DHT22;64609;47.052;15.462;2023-10-09T05:31:49;15.40;69.70
75931;DHT22;64609;47.052;15.462;2023-10-09T05:34:41;15.40;69.80
75931;DHT22;64609;47.052;15.462;2023-10-09T05:37:31;15.40;69.90
75931;DHT22;64609;47.052;15.462;2023-10-09T05:40:09;15.40;70.00
75931;DHT22;64609;47.052;15.462;2023-10-09T05:42:44;15.50;70.00
75931;DHT22;64609;47.052;15.462;2023-10-09T05:45:17;15.50;70.00
75931;DHT22;64609;47.052;15.462;2023-10-09T05:47:47;15.40;70.00
75931;DHT22;64609;47.052;15.462;2023-10-09T05:50:25;15.40;70.10
75931;DHT22;64609;47.052;15.462;2023-10-09T05:52:53;15.50;70.20
75931;DHT22;64609;47.052;15.462;2023-10-09T05:55:23;15.40;70.20
75931;DHT22;64609;47.052;15.462;2023-10-09T05:57:52;15.50;70.30
75931;DHT22;64609;47.052;15.462;2023-10-09T06:00:24;15.50;70.10
75931;DHT22;64609;47.052;15.462;2023-10-09T06:03:08;15.60;70.10
75931;DHT22;64609;47.052;15.462;2023-10-09T06:05:46;15.60;70.00
75931;DHT22;64609;47.052;15.462;2023-10-09T06:08:22;15.60;70.10
75931;DHT22;64609;47.052;15.462;2023-10-09T06:11:12;15.70;70.20
75931;DHT22;64609;47.052;15.462;2023-10-09T06:14:01;15.70;69.90
75931;DHT22;64609;47.052;15.462;2023-10-09T06:16:37;15.80;69.70
75931;DHT22;64609;47.052;15.462;2023-10-09T06:19:22;15.90;69.60
75931;DHT22;64609;47.052;15.462;2023-10-09T06:21:48;16.00;69.40
75931;DHT22;64609;47.052;15.462;2023-10-09T06:24:17;16.00;69.10
75931;DHT22;64609;47.052;15.462;2023-10-09T06:26:44;16.10;68.90
75931;DHT22;64609;47.052;15.462;2023-10-09T06:29:26;16.10;68.70
75931;DHT22;64609;47.052;15.462;2023-10-09T06:32:08;16.20;68.50
75931;DHT22;64609;47.052;15.462;2023-10-09T06:34:58;16.20;68.50
75931;DHT22;64609;47.052;15.462;2023-10-09T06:37:44;16.30;68.40
75931;DHT22;64609;47.052;15.462;2023-10-09T06:40:35;16.30;68.20
75931;DHT22;64609;47.052;15.462;2023-10-09T06:43:04;16.30;68.10
75931;DHT22;64609;47.052;15.462;2023-10-09T06:45:37;16.40;68.00
75931;DHT22;64609;47.052;15.462;2023-10-09T06:48:10;16.40;67.80
75931;DHT22;64609;47.052;15.462;2023-10-09T06:50:54;16.50;67.70
75931;DHT22;64609;47.052;15.462;2023-10-09T06:53:28;16.50;67.50
75931;DHT22;64609;47.052;15.462;2023-10-09T06:56:14;16.50;67.50
75931;DHT22;64609;47.052;15.462;2023-10-09T06:58:56;16.60;67.40
75931;DHT22;64609;47.052;15.462;2023-10-09T07:01:26;16.60;67.00
75931;DHT22;64609;47.052;15.462;2023-10-09T07:04:14;16.70;67.80
75931;DHT22;64609;47.052;15.462;2023-10-09T07:07:06;16.70;66.70
75931;DHT22;64609;47.052;15.462;2023-10-09T07:09:43;16.80;66.60
75931;DHT22;64609;47.052;15.462;2023-10-09T07:12:29;16.90;66.50
75931;DHT22;64609;47.052;15.462;2023-10-09T07:14:59;17.00;66.30
75931;DHT22;64609;47.052;15.462;2023-10-09T07:17:31;17.10;65.70
75931;DHT22;64609;47.052;15.462;2023-10-09T07:20:00;17.10;65.60
75931;DHT22;64609;47.052;15.462;2023-10-09T07:22:41;17.10;65.00
75931;DHT22;64609;47.052;15.462;2023-10-09T07:25:22;17.10;64.30
75931;DHT22;64609;47.052;15.462;2023-10-09T07:28:08;17.10;63.70
75931;DHT22;64609;47.052;15.462;2023-10-09T07:30:44;17.10;63.80
75931;DHT22;64609;47.052;15.462;2023-10-09T07:33:11;17.20;63.80
75931;DHT22;64609;47.052;15.462;2023-10-09T07:35:41;17.30;62.70
75931;DHT22;64609;47.052;15.462;2023-10-09T07:38:12;17.30;62.00
75931;DHT22;64609;47.052;15.462;2023-10-09T07:40:40;17.40;61.80
75931;DHT22;64609;47.052;15.462;2023-10-09T07:43:28;17.50;60.60
75931;DHT22;64609;47.052;15.462;2023-10-09T07:46:26;17.50;59.70
75931;DHT22;64609;47.052;15.462;2023-10-09T07:48:59;17.60;60.10
75931;DHT22;64609;47.052;15.462;2023-10-09T07:51:26;17.70;60.30
75931;DHT22;64609;47.052;15.462;2023-10-09T07:53:59;17.80;60.00
75931;DHT22;64609;47.052;15.462;2023-10-09T07:56:38;17.90;60.10
75931;DHT22;64609;47.052;15.462;2023-10-09T07:59:07;18.00;59.40
75931;DHT22;64609;47.052;15.462;2023-10-09T08:01:49;18.00;59.10
75931;DHT22;64609;47.052;15.462;2023-10-09T08:04:22;18.10;58.70
75931;DHT22;64609;47.052;15.462;2023-10-09T08:07:10;18.30;58.70
75931;DHT22;64609;47.052;15.462;2023-10-09T08:09:47;18.30;58.10
75931;DHT22;64609;47.052;15.462;2023-10-09T08:12:39;18.40;57.70
75931;DHT22;64609;47.052;15.462;2023-10-09T08:15:23;18.50;57.60
75931;DHT22;64609;47.052;15.462;2023-10-09T08:17:56;18.70;57.40
75931;DHT22;64609;47.052;15.462;2023-10-09T08:20:27;18.90;57.00
75931;DHT22;64609;47.052;15.462;2023-10-09T08:23:02;19.00;56.40
75931;DHT22;64609;47.052;15.462;2023-10-09T08:25:30;19.00;55.80
75931;DHT22;64609;47.052;15.462;2023-10-09T08:28:02;19.00;56.00
75931;DHT22;64609;47.052;15.462;2023-10-09T08:30:41;19.00;56.10
75931;DHT22;64609;47.052;15.462;2023-10-09T08:33:15;19.00;56.00
75931;DHT22;64609;47.052;15.462;2023-10-09T08:36:08;19.00;55.80
75931;DHT22;64609;47.052;15.462;2023-10-09T08:38:35;18.90;56.10
75931;DHT22;64609;47.052;15.462;2023-10-09T08:41:11;19.00;56.40
75931;DHT22;64609;47.052;15.462;2023-10-09T08:43:48;18.90;55.30
75931;DHT22;64609;47.052;15.462;2023-10-09T08:46:19;18.90;56.10
75931;DHT22;64609;47.052;15.462;2023-10-09T08:48:46;19.00;55.70
75931;DHT22;64609;47.052;15.462;2023-10-09T08:51:11;19.00;55.80
75931;DHT22;64609;47.052;15.462;2023-10-09T08:53:39;19.10;56.00
75931;DHT22;64609;47.052;15.462;2023-10-09T08:56:09;19.30;55.60
75931;DHT22;64609;47.052;15.462;2023-10-09T08:58:35;19.40;55.10
75931;DHT22;64609;47.052;15.462;2023-10-09T09:01:06;19.50;55.40
75931;DHT22;64609;47.052;15.462;2023-10-09T09:03:41;19.40;54.70
75931;DHT22;64609;47.052;15.462;2023-10-09T09:06:10;19.40;54.70
75931;DHT22;64609;47.052;15.462;2023-10-09T09:08:37;19.40;55.00
75931;DHT22;64609;47.052;15.462;2023-10-09T09:11:23;19.40;54.90
75931;DHT22;64609;47.052;15.462;2023-10-09T09:16:30;19.30;54.90
75931;DHT22;64609;47.052;15.462;2023-10-09T09:19:01;19.40;55.30
75931;DHT22;64609;47.052;15.462;2023-10-09T09:21:47;19.60;55.10
75931;DHT22;64609;47.052;15.462;2023-10-09T09:24:17;19.60;54.90
75931;DHT22;64609;47.052;15.462;2023-10-09T09:27:01;19.60;54.90
75931;DHT22;64609;47.052;15.462;2023-10-09T09:29:47;19.50;54.80
75931;DHT22;64609;47.052;15.462;2023-10-09T09:32:32;19.50;55.30
75931;DHT22;64609;47.052;15.462;2023-10-09T09:35:12;19.60;55.00
75931;DHT22;64609;47.052;15.462;2023-10-09T09:37:53;19.60;55.60
75931;DHT22;64609;47.052;15.462;2023-10-09T09:40:20;19.50;55.50
75931;DHT22;64609;47.052;15.462;2023-10-09T09:43:00;19.40;55.40
75931;DHT22;64609;47.052;15.462;2023-10-09T09:45:32;19.40;55.00
75931;DHT22;64609;47.052;15.462;2023-10-09T09:48:02;19.30;55.50
75931;DHT22;64609;47.052;15.462;2023-10-09T09:50:34;19.30;55.40
75931;DHT22;64609;47.052;15.462;2023-10-09T09:53:04;19.30;55.40
75931;DHT22;64609;47.052;15.462;2023-10-09T09:55:34;19.40;55.10
75931;DHT22;64609;47.052;15.462;2023-10-09T09:58:02;19.40;55.40
75931;DHT22;64609;47.052;15.462;2023-10-09T10:00:33;19.60;55.40
75931;DHT22;64609;47.052;15.462;2023-10-09T10:03:14;19.70;56.20
75931;DHT22;64609;47.052;15.462;2023-10-09T10:05:44;19.80;55.00
75931;DHT22;64609;47.052;15.462;2023-10-09T10:08:18;19.70;54.60
75931;DHT22;64609;47.052;15.462;2023-10-09T10:10:48;19.80;55.30
75931;DHT22;64609;47.052;15.462;2023-10-09T10:16:11;20.20;54.70
75931;DHT22;64609;47.052;15.462;2023-10-09T10:21:26;20.70;53.90
75931;DHT22;64609;47.052;15.462;2023-10-09T10:24:04;20.90;53.80
75931;DHT22;64609;47.052;15.462;2023-10-09T10:26:35;21.10;52.80
75931;DHT22;64609;47.052;15.462;2023-10-09T10:29:15;21.20;53.00
75931;DHT22;64609;47.052;15.462;2023-10-09T10:32:01;21.30;53.60
75931;DHT22;64609;47.052;15.462;2023-10-09T10:37:37;21.60;52.50
75931;DHT22;64609;47.052;15.462;2023-10-09T10:40:27;21.70;52.40
75931;DHT22;64609;47.052;15.462;2023-10-09T10:43:18;21.90;52.10
75931;DHT22;64609;47.052;15.462;2023-10-09T10:46:14;22.10;52.00
75931;DHT22;64609;47.052;15.462;2023-10-09T10:48:41;22.20;52.00
75931;DHT22;64609;47.052;15.462;2023-10-09T10:51:12;21.90;51.40
75931;DHT22;64609;47.052;15.462;2023-10-09T10:53:53;22.00;51.70
75931;DHT22;64609;47.052;15.462;2023-10-09T10:56:24;22.10;51.20
75931;DHT22;64609;47.052;15.462;2023-10-09T10:59:01;22.20;50.70
75931;DHT22;64609;47.052;15.462;2023-10-09T11:01:33;22.20;50.80
75931;DHT22;64609;47.052;15.462;2023-10-09T11:04:24;22.30;51.40
75931;DHT22;64609;47.052;15.462;2023-10-09T11:06:56;22.40;51.10
75931;DHT22;64609;47.052;15.462;2023-10-09T11:09:26;22.60;51.10
75931;DHT22;64609;47.052;15.462;2023-10-09T11:12:05;22.70;51.10
75931;DHT22;64609;47.052;15.462;2023-10-09T11:14:50;22.70;50.30
75931;DHT22;64609;47.052;15.462;2023-10-09T11:17:37;22.60;50.30
75931;DHT22;64609;47.052;15.462;2023-10-09T11:20:06;22.80;50.80
75931;DHT22;64609;47.052;15.462;2023-10-09T11:22:52;22.90;50.50
75931;DHT22;64609;47.052;15.462;2023-10-09T11:25:42;23.10;50.10
75931;DHT22;64609;47.052;15.462;2023-10-09T11:28:18;23.20;49.90
75931;DHT22;64609;47.052;15.462;2023-10-09T11:31:13;23.40;50.00
75931;DHT22;64609;47.052;15.462;2023-10-09T11:33:48;23.50;50.20
75931;DHT22;64609;47.052;15.462;2023-10-09T11:36:21;23.50;50.10
75931;DHT22;64609;47.052;15.462;2023-10-09T11:38:57;23.60;49.70
75931;DHT22;64609;47.052;15.462;2023-10-09T11:41:43;23.60;49.80
75931;DHT22;64609;47.052;15.462;2023-10-09T11:44:10;23.70;49.20
75931;DHT22;64609;47.052;15.462;2023-10-09T11:46:58;23.80;49.30
75931;DHT22;64609;47.052;15.462;2023-10-09T11:49:50;23.90;48.80
75931;DHT22;64609;47.052;15.462;2023-10-09T11:52:28;24.00;49.00
75931;DHT22;64609;47.052;15.462;2023-10-09T11:54:59;23.90;48.90
75931;DHT22;64609;47.052;15.462;2023-10-09T11:57:25;23.90;49.10
75931;DHT22;64609;47.052;15.462;2023-10-09T11:59:59;23.90;49.10
75931;DHT22;64609;47.052;15.462;2023-10-09T12:02:26;23.90;49.10
75931;DHT22;64609;47.052;15.462;2023-10-09T12:04:52;24.00;49.00
75931;DHT22;64609;47.052;15.462;2023-10-09T12:07:22;24.10;48.70
75931;DHT22;64609;47.052;15.462;2023-10-09T12:09:47;24.20;48.60
75931;DHT22;64609;47.052;15.462;2023-10-09T12:12:14;24.30;48.50
75931;DHT22;64609;47.052;15.462;2023-10-09T12:14:39;24.20;48.00
75931;DHT22;64609;47.052;15.462;2023-10-09T12:17:06;24.30;48.10
75931;DHT22;64609;47.052;15.462;2023-10-09T12:19:33;24.30;48.00
75931;DHT22;64609;47.052;15.462;2023-10-09T12:22:03;24.40;48.00
75931;DHT22;64609;47.052;15.462;2023-10-09T12:24:32;24.30;48.20
75931;DHT22;64609;47.052;15.462;2023-10-09T12:26:59;24.30;47.70
75931;DHT22;64609;47.052;15.462;2023-10-09T12:29:25;24.40;48.20
75931;DHT22;64609;47.052;15.462;2023-10-09T12:31:56;24.60;48.20
75931;DHT22;64609;47.052;15.462;2023-10-09T12:34:27;24.80;47.60
75931;DHT22;64609;47.052;15.462;2023-10-09T12:36:54;24.80;47.80
75931;DHT22;64609;47.052;15.462;2023-10-09T12:39:22;24.70;48.00
75931;DHT22;64609;47.052;15.462;2023-10-09T12:41:48;24.80;48.10
75931;DHT22;64609;47.052;15.462;2023-10-09T12:44:19;24.90;47.80
75931;DHT22;64609;47.052;15.462;2023-10-09T12:46:45;24.80;47.60
75931;DHT22;64609;47.052;15.462;2023-10-09T12:49:18;24.60;48.00
75931;DHT22;64609;47.052;15.462;2023-10-09T12:51:45;24.60;48.60
75931;DHT22;64609;47.052;15.462;2023-10-09T12:54:11;24.60;48.60
75931;DHT22;64609;47.052;15.462;2023-10-09T12:56:40;24.70;48.80
75931;DHT22;64609;47.052;15.462;2023-10-09T12:59:06;24.70;49.00
75931;DHT22;64609;47.052;15.462;2023-10-09T13:01:33;24.70;48.80
75931;DHT22;64609;47.052;15.462;2023-10-09T13:04:08;24.60;49.20
75931;DHT22;64609;47.052;15.462;2023-10-09T13:06:40;24.60;49.50
75931;DHT22;64609;47.052;15.462;2023-10-09T13:09:13;24.60;49.10
75931;DHT22;64609;47.052;15.462;2023-10-09T13:11:40;24.50;48.80
75931;DHT22;64609;47.052;15.462;2023-10-09T13:14:09;24.40;49.20
75931;DHT22;64609;47.052;15.462;2023-10-09T13:16:48;24.10;49.40
75931;DHT22;64609;47.052;15.462;2023-10-09T13:19:18;23.90;50.10
75931;DHT22;64609;47.052;15.462;2023-10-09T13:21:44;23.90;50.40
75931;DHT22;64609;47.052;15.462;2023-10-09T13:24:10;23.80;50.70
75931;DHT22;64609;47.052;15.462;2023-10-09T13:26:44;23.90;51.20
75931;DHT22;64609;47.052;15.462;2023-10-09T13:29:16;24.00;51.40
75931;DHT22;64609;47.052;15.462;2023-10-09T13:31:48;24.00;51.00
75931;DHT22;64609;47.052;15.462;2023-10-09T13:34:14;23.90;51.10
75931;DHT22;64609;47.052;15.462;2023-10-09T13:36:43;23.90;50.70
75931;DHT22;64609;47.052;15.462;2023-10-09T13:39:19;23.80;51.50
75931;DHT22;64609;47.052;15.462;2023-10-09T13:41:44;23.80;51.40
75931;DHT22;64609;47.052;15.462;2023-10-09T13:44:10;23.70;51.30
75931;DHT22;64609;47.052;15.462;2023-10-09T13:46:35;23.70;51.90
75931;DHT22;64609;47.052;15.462;2023-10-09T13:49:07;23.70;52.30
75931;DHT22;64609;47.052;15.462;2023-10-09T13:51:41;23.80;52.20
75931;DHT22;64609;47.052;15.462;2023-10-09T13:54:11;23.80;51.90
75931;DHT22;64609;47.052;15.462;2023-10-09T13:56:47;23.80;52.00
75931;DHT22;64609;47.052;15.462;2023-10-09T13:59:14;23.70;51.80
75931;DHT22;64609;47.052;15.462;2023-10-09T14:01:45;23.60;52.20
75931;DHT22;64609;47.052;15.462;2023-10-09T14:04:13;23.50;52.40
75931;DHT22;64609;47.052;15.462;2023-10-09T14:06:44;23.50;52.50
75931;DHT22;64609;47.052;15.462;2023-10-09T14:09:10;23.40;52.80
75931;DHT22;64609;47.052;15.462;2023-10-09T14:11:37;23.50;53.50
75931;DHT22;64609;47.052;15.462;2023-10-09T14:14:10;23.50;52.80
75931;DHT22;64609;47.052;15.462;2023-10-09T14:16:37;23.50;53.00
75931;DHT22;64609;47.052;15.462;2023-10-09T14:19:08;23.50;52.80
75931;DHT22;64609;47.052;15.462;2023-10-09T14:21:39;23.50;52.80
75931;DHT22;64609;47.052;15.462;2023-10-09T14:24:07;23.50;53.00
75931;DHT22;64609;47.052;15.462;2023-10-09T14:26:43;23.50;53.70
75931;DHT22;64609;47.052;15.462;2023-10-09T14:29:12;23.40;53.80
75931;DHT22;64609;47.052;15.462;2023-10-09T14:31:43;23.30;53.80
75931;DHT22;64609;47.052;15.462;2023-10-09T14:34:09;23.30;54.20
75931;DHT22;64609;47.052;15.462;2023-10-09T14:36:35;23.20;55.00
75931;DHT22;64609;47.052;15.462;2023-10-09T14:39:01;23.20;55.20
75931;DHT22;64609;47.052;15.462;2023-10-09T14:41:28;23.20;54.70
75931;DHT22;64609;47.052;15.462;2023-10-09T14:43:58;23.20;55.70
75931;DHT22;64609;47.052;15.462;2023-10-09T14:46:24;23.20;55.90
75931;DHT22;64609;47.052;15.462;2023-10-09T14:48:54;23.10;55.60
75931;DHT22;64609;47.052;15.462;2023-10-09T14:51:21;23.10;55.50
75931;DHT22;64609;47.052;15.462;2023-10-09T14:53:55;23.10;56.00
75931;DHT22;64609;47.052;15.462;2023-10-09T14:56:24;22.90;56.70
75931;DHT22;64609;47.052;15.462;2023-10-09T14:58:55;22.90;57.00
75931;DHT22;64609;47.052;15.462;2023-10-09T15:01:21;22.90;57.20
75931;DHT22;64609;47.052;15.462;2023-10-09T15:03:50;22.90;57.30
75931;DHT22;64609;47.052;15.462;2023-10-09T15:06:18;22.80;57.60
75931;DHT22;64609;47.052;15.462;2023-10-09T15:08:44;22.70;57.20
75931;DHT22;64609;47.052;15.462;2023-10-09T15:11:12;22.70;58.10
75931;DHT22;64609;47.052;15.462;2023-10-09T15:13:37;22.70;58.40
75931;DHT22;64609;47.052;15.462;2023-10-09T15:16:05;22.60;58.10
75931;DHT22;64609;47.052;15.462;2023-10-09T15:18:30;22.50;58.40
75931;DHT22;64609;47.052;15.462;2023-10-09T15:20:58;22.50;58.50
75931;DHT22;64609;47.052;15.462;2023-10-09T15:23:25;22.40;58.90
75931;DHT22;64609;47.052;15.462;2023-10-09T15:25:50;22.40;59.60
75931;DHT22;64609;47.052;15.462;2023-10-09T15:28:22;22.30;59.60
75931;DHT22;64609;47.052;15.462;2023-10-09T15:30:48;22.30;60.10
75931;DHT22;64609;47.052;15.462;2023-10-09T15:33:18;22.30;60.30
75931;DHT22;64609;47.052;15.462;2023-10-09T15:35:44;22.20;60.40
75931;DHT22;64609;47.052;15.462;2023-10-09T15:38:15;22.20;60.70
75931;DHT22;64609;47.052;15.462;2023-10-09T15:40:41;22.10;61.00
75931;DHT22;64609;47.052;15.462;2023-10-09T15:43:09;22.10;61.20
75931;DHT22;64609;47.052;15.462;2023-10-09T15:45:42;22.10;61.50
75931;DHT22;64609;47.052;15.462;2023-10-09T15:48:10;22.00;61.60
75931;DHT22;64609;47.052;15.462;2023-10-09T15:50:38;21.90;61.80
75931;DHT22;64609;47.052;15.462;2023-10-09T15:53:05;21.90;62.20
75931;DHT22;64609;47.052;15.462;2023-10-09T15:55:34;21.80;62.50
75931;DHT22;64609;47.052;15.462;2023-10-09T15:57:59;21.80;62.60
75931;DHT22;64609;47.052;15.462;2023-10-09T16:00:25;21.80;62.80
75931;DHT22;64609;47.052;15.462;2023-10-09T16:02:54;21.70;62.80
75931;DHT22;64609;47.052;15.462;2023-10-09T16:05:21;21.70;63.20
75931;DHT22;64609;47.052;15.462;2023-10-09T16:07:51;21.70;63.20
75931;DHT22;64609;47.052;15.462;2023-10-09T16:10:19;21.70;63.20